sensor_id;sensor_type;location;lat;lon;timestamp;temperature;humidity
16728;DHT22;8482;54.396;18.590;2023-04-24T00:00:20;14.60;99.90
16728;DHT22;8482;54.396;18.590;2023-04-24T00:02:46;14.60;99.90
16728;DHT22;8482;54.396;18.590;2023-04-24T00:05:14;14.60;99.90
16728;DHT22;8482;54.396;18.590;2023-04-24T00:07:41;14.60;99.90
16728;DHT22;8482;54.396;18.590;2023-04-24T00:10:08;14.60;99.90
16728;DHT22;8482;54.396;18.590;2023-04-24T00:12:35;14.60;99.90
16728;DHT22;8482;54.396;18.590;2023-04-24T00:15:02;14.50;99.90
16728;DHT22;8482;54.396;18.590;2023-04-24T00:17:28;14.50;99.90
16728;DHT22;8482;54.396;18.590;2023-04-24T00:19:54;14.50;99.90
16728;DHT22;8482;54.396;18.590;2023-04-24T00:22:30;14.50;99.90
16728;DHT22;8482;54.396;18.590;2023-04-24T00:24:57;14.40;99.90
16728;DHT22;8482;54.396;18.590;2023-04-24T00:27:23;14.30;99.90
16728;DHT22;8482;54.396;18.590;2023-04-24T00:29:49;14.30;99.90
16728;DHT22;8482;54.396;18.590;2023-04-24T00:32:14;14.30;99.90
16728;DHT22;8482;54.396;18.590;2023-04-24T00:34:41;14.30;99.90
16728;DHT22;8482;54.396;18.590;2023-04-24T00:37:07;14.30;99.90
16728;DHT22;8482;54.396;18.590;2023-04-24T00:39:33;14.20;99.90
16728;DHT22;8482;54.396;18.590;2023-04-24T00:41:59;14.20;99.90
16728;DHT22;8482;54.396;18.590;2023-04-24T00:44:25;14.20;99.90
16728;DHT22;8482;54.396;18.590;2023-04-24T00:46:51;14.20;99.90
16728;DHT22;8482;54.396;18.590;2023-04-24T00:49:23;14.10;99.90
16728;DHT22;8482;54.396;18.590;2023-04-24T00:51:49;14.10;99.90
16728;DHT22;8482;54.396;18.590;2023-04-24T00:54:17;14.00;99.90
16728;DHT22;8482;54.396;18.590;2023-04-24T00:56:44;14.00;99.90
16728;DHT22;8482;54.396;18.590;2023-04-24T00:59:12;14.00;99.90
16728;DHT22;8482;54.396;18.590;2023-04-24T01:01:39;14.00;99.90
16728;DHT22;8482;54.396;18.590;2023-04-24T01:04:12;13.90;99.90
16728;DHT22;8482;54.396;18.590;2023-04-24T01:06:40;13.90;99.90
16728;DHT22;8482;54.396;18.590;2023-04-24T01:09:10;13.90;99.90
16728;DHT22;8482;54.396;18.590;2023-04-24T01:11:39;13.90;99.90
16728;DHT22;8482;54.396;18.590;2023-04-24T01:14:07;13.80;99.90
16728;DHT22;8482;54.396;18.590;2023-04-24T01:16:33;13.80;99.90
16728;DHT22;8482;54.396;18.590;2023-04-24T01:18:59;13.80;99.90
16728;DHT22;8482;54.396;18.590;2023-04-24T01:21:26;13.80;99.90
16728;DHT22;8482;54.396;18.590;2023-04-24T01:23:55;13.70;99.90
16728;DHT22;8482;54.396;18.590;2023-04-24T01:26:22;13.70;99.90
16728;DHT22;8482;54.396;18.590;2023-04-24T01:28:49;13.70;99.90
16728;DHT22;8482;54.396;18.590;2023-04-24T01:31:15;13.70;99.90
16728;DHT22;8482;54.396;18.590;2023-04-24T01:33:42;13.70;99.90
16728;DHT22;8482;54.396;18.590;2023-04-24T01:36:10;13.60;99.90
16728;DHT22;8482;54.396;18.590;2023-04-24T01:38:37;13.60;99.90
16728;DHT22;8482;54.396;18.590;2023-04-24T01:41:03;13.60;99.90
16728;DHT22;8482;54.396;18.590;2023-04-24T01:43:29;13.60;99.90
16728;DHT22;8482;54.396;18.590;2023-04-24T01:45:55;13.60;99.90
16728;DHT22;8482;54.396;18.590;2023-04-24T01:48:22;13.60;99.90
16728;DHT22;8482;54.396;18.590;2023-04-24T01:50:47;13.60;99.90
16728;DHT22;8482;54.396;18.590;2023-04-24T01:53:13;13.60;99.90
16728;DHT22;8482;54.396;18.590;2023-04-24T01:55:40;13.50;99.90
16728;DHT22;8482;54.396;18.590;2023-04-24T01:58:06;13.50;99.90
16728;DHT22;8482;54.396;18.590;2023-04-24T02:00:33;13.50;99.90
16728;DHT22;8482;54.396;18.590;2023-04-24T02:02:58;13.50;99.90
16728;DHT22;8482;54.396;18.590;2023-04-24T02:05:24;13.50;99.90
16728;DHT22;8482;54.396;18.590;2023-04-24T02:07:50;13.50;99.90
16728;DHT22;8482;54.396;18.590;2023-04-24T02:10:16;13.50;99.90
16728;DHT22;8482;54.396;18.590;2023-04-24T02:12:42;13.40;99.90
16728;DHT22;8482;54.396;18.590;2023-04-24T02:15:08;13.40;99.90
16728;DHT22;8482;54.396;18.590;2023-04-24T02:17:34;13.40;99.90
16728;DHT22;8482;54.396;18.590;2023-04-24T02:20:00;13.40;99.90
16728;DHT22;8482;54.396;18.590;2023-04-24T02:22:26;13.40;99.90
16728;DHT22;8482;54.396;18.590;2023-04-24T02:24:51;13.40;99.90
16728;DHT22;8482;54.396;18.590;2023-04-24T02:27:17;13.40;99.90
16728;DHT22;8482;54.396;18.590;2023-04-24T02:29:43;13.30;99.90
16728;DHT22;8482;54.396;18.590;2023-04-24T02:32:09;13.40;99.90
16728;DHT22;8482;54.396;18.590;2023-04-24T02:34:37;13.30;99.90
16728;DHT22;8482;54.396;18.590;2023-04-24T02:37:04;13.30;99.90
16728;DHT22;8482;54.396;18.590;2023-04-24T02:39:30;13.30;99.90
16728;DHT22;8482;54.396;18.590;2023-04-24T02:41:55;13.30;99.90
16728;DHT22;8482;54.396;18.590;2023-04-24T02:44:21;13.30;99.90
16728;DHT22;8482;54.396;18.590;2023-04-24T02:46:47;13.30;99.90
16728;DHT22;8482;54.396;18.590;2023-04-24T02:49:13;13.30;99.90
16728;DHT22;8482;54.396;18.590;2023-04-24T02:51:39;13.20;99.90
16728;DHT22;8482;54.396;18.590;2023-04-24T02:54:07;13.30;99.90
16728;DHT22;8482;54.396;18.590;2023-04-24T02:56:35;13.20;99.90
16728;DHT22;8482;54.396;18.590;2023-04-24T02:59:01;13.20;99.90
16728;DHT22;8482;54.396;18.590;2023-04-24T03:01:27;13.20;99.90
16728;DHT22;8482;54.396;18.590;2023-04-24T03:03:53;13.20;99.90
16728;DHT22;8482;54.396;18.590;2023-04-24T03:06:18;13.20;99.90
16728;DHT22;8482;54.396;18.590;2023-04-24T03:08:46;13.20;99.90
16728;DHT22;8482;54.396;18.590;2023-04-24T03:11:12;13.20;99.90
16728;DHT22;8482;54.396;18.590;2023-04-24T03:13:37;13.10;99.90
16728;DHT22;8482;54.396;18.590;2023-04-24T03:16:03;13.10;99.90
16728;DHT22;8482;54.396;18.590;2023-04-24T03:18:30;13.10;99.90
16728;DHT22;8482;54.396;18.590;2023-04-24T03:20:55;13.10;99.90
16728;DHT22;8482;54.396;18.590;2023-04-24T03:23:21;13.10;99.90
16728;DHT22;8482;54.396;18.590;2023-04-24T03:25:47;13.00;99.90
16728;DHT22;8482;54.396;18.590;2023-04-24T03:28:14;13.00;99.90
16728;DHT22;8482;54.396;18.590;2023-04-24T03:30:40;13.00;99.90
16728;DHT22;8482;54.396;18.590;2023-04-24T03:33:06;13.00;99.90
16728;DHT22;8482;54.396;18.590;2023-04-24T03:35:32;13.00;99.90
16728;DHT22;8482;54.396;18.590;2023-04-24T03:37:58;12.90;99.90
16728;DHT22;8482;54.396;18.590;2023-04-24T03:40:24;12.90;99.90
16728;DHT22;8482;54.396;18.590;2023-04-24T03:42:50;12.90;99.90
16728;DHT22;8482;54.396;18.590;2023-04-24T03:45:15;12.90;99.90
16728;DHT22;8482;54.396;18.590;2023-04-24T03:47:41;12.80;99.90
16728;DHT22;8482;54.396;18.590;2023-04-24T03:50:07;12.80;99.90
16728;DHT22;8482;54.396;18.590;2023-04-24T03:52:33;12.80;99.90
16728;DHT22;8482;54.396;18.590;2023-04-24T03:54:59;12.80;99.90
16728;DHT22;8482;54.396;18.590;2023-04-24T03:57:25;12.80;99.90
16728;DHT22;8482;54.396;18.590;2023-04-24T03:59:51;12.80;99.90
16728;DHT22;8482;54.396;18.590;2023-04-24T04:02:18;12.80;99.90
16728;DHT22;8482;54.396;18.590;2023-04-24T04:04:44;12.70;99.90
16728;DHT22;8482;54.396;18.590;2023-04-24T04:07:10;12.70;99.90
16728;DHT22;8482;54.396;18.590;2023-04-24T04:09:36;12.70;99.90
16728;DHT22;8482;54.396;18.590;2023-04-24T04:12:02;12.70;99.90
16728;DHT22;8482;54.396;18.590;2023-04-24T04:14:28;12.70;99.90
16728;DHT22;8482;54.396;18.590;2023-04-24T04:16:54;12.70;99.90
16728;DHT22;8482;54.396;18.590;2023-04-24T04:19:19;12.70;99.90
16728;DHT22;8482;54.396;18.590;2023-04-24T04:21:45;12.70;99.90
16728;DHT22;8482;54.396;18.590;2023-04-24T04:24:16;12.70;99.90
16728;DHT22;8482;54.396;18.590;2023-04-24T04:26:41;12.70;99.90
16728;DHT22;8482;54.396;18.590;2023-04-24T04:29:13;12.70;99.90
16728;DHT22;8482;54.396;18.590;2023-04-24T04:31:39;12.70;99.90
16728;DHT22;8482;54.396;18.590;2023-04-24T04:34:05;12.70;99.90
16728;DHT22;8482;54.396;18.590;2023-04-24T04:36:31;12.70;99.90
16728;DHT22;8482;54.396;18.590;2023-04-24T04:38:58;12.70;99.90
16728;DHT22;8482;54.396;18.590;2023-04-24T04:41:24;12.70;99.90
16728;DHT22;8482;54.396;18.590;2023-04-24T04:43:50;12.70;99.90
16728;DHT22;8482;54.396;18.590;2023-04-24T04:46:18;12.70;99.90
16728;DHT22;8482;54.396;18.590;2023-04-24T04:48:44;12.70;99.90
16728;DHT22;8482;54.396;18.590;2023-04-24T04:51:10;12.70;99.90
16728;DHT22;8482;54.396;18.590;2023-04-24T04:53:35;12.70;99.90
16728;DHT22;8482;54.396;18.590;2023-04-24T04:56:01;12.70;99.90
16728;DHT22;8482;54.396;18.590;2023-04-24T04:58:27;12.70;99.90
16728;DHT22;8482;54.396;18.590;2023-04-24T05:00:53;12.70;99.90
16728;DHT22;8482;54.396;18.590;2023-04-24T05:03:19;12.70;99.90
16728;DHT22;8482;54.396;18.590;2023-04-24T05:05:45;12.70;99.90
16728;DHT22;8482;54.396;18.590;2023-04-24T05:08:11;12.70;99.90
16728;DHT22;8482;54.396;18.590;2023-04-24T05:10:36;12.70;99.90
16728;DHT22;8482;54.396;18.590;2023-04-24T05:13:03;12.70;99.90
16728;DHT22;8482;54.396;18.590;2023-04-24T05:15:30;12.70;99.90
16728;DHT22;8482;54.396;18.590;2023-04-24T05:17:56;12.70;99.90
16728;DHT22;8482;54.396;18.590;2023-04-24T05:20:22;12.80;99.90
16728;DHT22;8482;54.396;18.590;2023-04-24T05:22:48;12.80;99.90
16728;DHT22;8482;54.396;18.590;2023-04-24T05:25:14;12.80;99.90
16728;DHT22;8482;54.396;18.590;2023-04-24T05:27:40;12.70;99.90
16728;DHT22;8482;54.396;18.590;2023-04-24T05:30:06;12.70;99.90
16728;DHT22;8482;54.396;18.590;2023-04-24T05:32:33;12.80;99.90
16728;DHT22;8482;54.396;18.590;2023-04-24T05:34:58;12.80;99.90
16728;DHT22;8482;54.396;18.590;2023-04-24T05:37:25;12.80;99.90
16728;DHT22;8482;54.396;18.590;2023-04-24T05:39:51;12.80;99.90
16728;DHT22;8482;54.396;18.590;2023-04-24T05:42:17;12.80;99.90
16728;DHT22;8482;54.396;18.590;2023-04-24T05:44:42;12.80;99.90
16728;DHT22;8482;54.396;18.590;2023-04-24T05:47:09;12.80;99.90
16728;DHT22;8482;54.396;18.590;2023-04-24T05:49:34;12.90;99.90
16728;DHT22;8482;54.396;18.590;2023-04-24T05:52:00;12.90;99.90
16728;DHT22;8482;54.396;18.590;2023-04-24T05:54:26;12.90;99.90
16728;DHT22;8482;54.396;18.590;2023-04-24T05:56:52;12.90;99.90
16728;DHT22;8482;54.396;18.590;2023-04-24T05:59:19;12.80;99.90
16728;DHT22;8482;54.396;18.590;2023-04-24T06:01:45;12.80;99.90
16728;DHT22;8482;54.396;18.590;2023-04-24T06:04:12;12.80;99.90
16728;DHT22;8482;54.396;18.590;2023-04-24T06:06:39;12.80;99.90
16728;DHT22;8482;54.396;18.590;2023-04-24T06:09:05;12.80;99.90
16728;DHT22;8482;54.396;18.590;2023-04-24T06:11:31;12.90;99.90
16728;DHT22;8482;54.396;18.590;2023-04-24T06:13:57;12.90;99.90
16728;DHT22;8482;54.396;18.590;2023-04-24T06:16:23;12.90;99.90
16728;DHT22;8482;54.396;18.590;2023-04-24T06:18:49;13.00;99.90
16728;DHT22;8482;54.396;18.590;2023-04-24T06:21:16;13.00;99.90
16728;DHT22;8482;54.396;18.590;2023-04-24T06:23:42;13.00;99.90
16728;DHT22;8482;54.396;18.590;2023-04-24T06:26:08;13.10;99.90
16728;DHT22;8482;54.396;18.590;2023-04-24T06:28:34;13.10;99.90
16728;DHT22;8482;54.396;18.590;2023-04-24T06:31:00;13.10;99.90
16728;DHT22;8482;54.396;18.590;2023-04-24T06:33:26;13.10;99.90
16728;DHT22;8482;54.396;18.590;2023-04-24T06:35:51;13.10;99.90
16728;DHT22;8482;54.396;18.590;2023-04-24T06:38:17;13.20;99.90
16728;DHT22;8482;54.396;18.590;2023-04-24T06:40:43;13.20;99.90
16728;DHT22;8482;54.396;18.590;2023-04-24T06:43:09;13.20;99.90
16728;DHT22;8482;54.396;18.590;2023-04-24T06:45:36;13.30;99.90
16728;DHT22;8482;54.396;18.590;2023-04-24T06:48:02;13.30;99.90
16728;DHT22;8482;54.396;18.590;2023-04-24T06:50:28;13.30;99.90
16728;DHT22;8482;54.396;18.590;2023-04-24T06:52:54;13.30;99.90
16728;DHT22;8482;54.396;18.590;2023-04-24T06:55:19;13.40;99.90
16728;DHT22;8482;54.396;18.590;2023-04-24T06:57:45;13.40;99.90
16728;DHT22;8482;54.396;18.590;2023-04-24T07:00:12;13.40;99.90
16728;DHT22;8482;54.396;18.590;2023-04-24T07:02:38;13.50;99.90
16728;DHT22;8482;54.396;18.590;2023-04-24T07:05:05;13.50;99.90
16728;DHT22;8482;54.396;18.590;2023-04-24T07:07:32;13.60;99.90
16728;DHT22;8482;54.396;18.590;2023-04-24T07:09:58;13.60;99.90
16728;DHT22;8482;54.396;18.590;2023-04-24T07:12:23;13.60;99.90
16728;DHT22;8482;54.396;18.590;2023-04-24T07:14:50;13.60;99.90
16728;DHT22;8482;54.396;18.590;2023-04-24T07:17:16;13.60;99.90
16728;DHT22;8482;54.396;18.590;2023-04-24T07:19:42;13.60;99.90
16728;DHT22;8482;54.396;18.590;2023-04-24T07:22:08;13.60;99.90
16728;DHT22;8482;54.396;18.590;2023-04-24T07:24:33;13.60;99.90
16728;DHT22;8482;54.396;18.590;2023-04-24T07:26:59;13.60;99.90
16728;DHT22;8482;54.396;18.590;2023-04-24T07:29:26;13.60;99.90
16728;DHT22;8482;54.396;18.590;2023-04-24T07:31:52;13.60;99.90
16728;DHT22;8482;54.396;18.590;2023-04-24T07:34:19;13.60;99.90
16728;DHT22;8482;54.396;18.590;2023-04-24T07:36:45;13.60;99.90
16728;DHT22;8482;54.396;18.590;2023-04-24T07:39:11;13.60;99.90
16728;DHT22;8482;54.396;18.590;2023-04-24T07:41:37;13.60;99.90
16728;DHT22;8482;54.396;18.590;2023-04-24T07:44:03;13.60;99.90
16728;DHT22;8482;54.396;18.590;2023-04-24T07:46:30;13.60;99.90
16728;DHT22;8482;54.396;18.590;2023-04-24T07:48:56;13.60;99.90
16728;DHT22;8482;54.396;18.590;2023-04-24T07:51:22;13.60;99.90
16728;DHT22;8482;54.396;18.590;2023-04-24T07:53:48;13.60;99.90
16728;DHT22;8482;54.396;18.590;2023-04-24T07:56:14;13.60;99.90
16728;DHT22;8482;54.396;18.590;2023-04-24T07:58:40;13.60;99.90
16728;DHT22;8482;54.396;18.590;2023-04-24T08:01:06;13.60;99.90
16728;DHT22;8482;54.396;18.590;2023-04-24T08:03:32;13.60;99.90
16728;DHT22;8482;54.396;18.590;2023-04-24T08:05:58;13.60;99.90
16728;DHT22;8482;54.396;18.590;2023-04-24T08:08:24;13.60;99.90
16728;DHT22;8482;54.396;18.590;2023-04-24T08:10:50;13.60;99.90
16728;DHT22;8482;54.396;18.590;2023-04-24T08:13:16;13.60;99.90
16728;DHT22;8482;54.396;18.590;2023-04-24T08:15:42;13.70;99.90
16728;DHT22;8482;54.396;18.590;2023-04-24T08:18:08;13.70;99.90
16728;DHT22;8482;54.396;18.590;2023-04-24T08:20:34;13.70;99.90
16728;DHT22;8482;54.396;18.590;2023-04-24T08:23:00;13.80;99.90
16728;DHT22;8482;54.396;18.590;2023-04-24T08:25:26;13.80;99.90
16728;DHT22;8482;54.396;18.590;2023-04-24T08:27:52;13.80;99.90
16728;DHT22;8482;54.396;18.590;2023-04-24T08:30:18;13.80;99.90
16728;DHT22;8482;54.396;18.590;2023-04-24T08:32:44;13.90;99.90
16728;DHT22;8482;54.396;18.590;2023-04-24T08:35:10;13.90;99.90
16728;DHT22;8482;54.396;18.590;2023-04-24T08:37:37;14.00;99.90
16728;DHT22;8482;54.396;18.590;2023-04-24T08:40:13;14.00;99.90
16728;DHT22;8482;54.396;18.590;2023-04-24T08:42:42;14.00;99.90
16728;DHT22;8482;54.396;18.590;2023-04-24T08:45:11;14.10;99.90
16728;DHT22;8482;54.396;18.590;2023-04-24T08:47:38;14.10;99.90
16728;DHT22;8482;54.396;18.590;2023-04-24T08:50:07;14.20;99.90
16728;DHT22;8482;54.396;18.590;2023-04-24T08:52:35;14.20;99.90
16728;DHT22;8482;54.396;18.590;2023-04-24T08:55:01;14.30;99.90
16728;DHT22;8482;54.396;18.590;2023-04-24T08:57:28;14.30;99.90
16728;DHT22;8482;54.396;18.590;2023-04-24T08:59:56;14.30;99.90
16728;DHT22;8482;54.396;18.590;2023-04-24T09:02:25;14.30;99.90
16728;DHT22;8482;54.396;18.590;2023-04-24T09:04:52;14.40;99.90
16728;DHT22;8482;54.396;18.590;2023-04-24T09:07:19;14.40;99.90
16728;DHT22;8482;54.396;18.590;2023-04-24T09:09:48;14.40;99.90
16728;DHT22;8482;54.396;18.590;2023-04-24T09:12:17;14.50;99.90
16728;DHT22;8482;54.396;18.590;2023-04-24T09:14:45;14.50;99.90
16728;DHT22;8482;54.396;18.590;2023-04-24T09:17:14;14.60;99.90
16728;DHT22;8482;54.396;18.590;2023-04-24T09:19:40;14.60;99.90
16728;DHT22;8482;54.396;18.590;2023-04-24T09:22:07;14.70;99.90
16728;DHT22;8482;54.396;18.590;2023-04-24T09:24:34;14.70;99.90
16728;DHT22;8482;54.396;18.590;2023-04-24T09:27:01;14.70;99.90
16728;DHT22;8482;54.396;18.590;2023-04-24T09:29:28;14.80;99.90
16728;DHT22;8482;54.396;18.590;2023-04-24T09:31:54;14.80;99.90
16728;DHT22;8482;54.396;18.590;2023-04-24T09:34:26;14.90;99.90
16728;DHT22;8482;54.396;18.590;2023-04-24T09:36:53;14.90;99.90
16728;DHT22;8482;54.396;18.590;2023-04-24T09:39:20;15.00;99.90
16728;DHT22;8482;54.396;18.590;2023-04-24T09:41:50;15.00;99.90
16728;DHT22;8482;54.396;18.590;2023-04-24T09:44:26;15.10;99.90
16728;DHT22;8482;54.396;18.590;2023-04-24T09:46:58;15.10;99.90
16728;DHT22;8482;54.396;18.590;2023-04-24T09:49:26;15.20;99.90
16728;DHT22;8482;54.396;18.590;2023-04-24T09:52:08;15.20;99.90
16728;DHT22;8482;54.396;18.590;2023-04-24T09:54:35;15.30;99.90
16728;DHT22;8482;54.396;18.590;2023-04-24T09:57:02;15.30;99.90
16728;DHT22;8482;54.396;18.590;2023-04-24T09:59:29;15.40;99.90
16728;DHT22;8482;54.396;18.590;2023-04-24T10:01:55;15.50;99.90
16728;DHT22;8482;54.396;18.590;2023-04-24T10:04:27;15.60;99.90
16728;DHT22;8482;54.396;18.590;2023-04-24T10:06:55;15.60;99.90
16728;DHT22;8482;54.396;18.590;2023-04-24T10:09:26;15.70;99.90
16728;DHT22;8482;54.396;18.590;2023-04-24T10:11:53;15.80;99.90
16728;DHT22;8482;54.396;18.590;2023-04-24T10:14:22;15.80;99.90
16728;DHT22;8482;54.396;18.590;2023-04-24T10:16:52;15.90;99.90
16728;DHT22;8482;54.396;18.590;2023-04-24T10:19:19;16.00;99.90
16728;DHT22;8482;54.396;18.590;2023-04-24T10:21:45;16.10;99.90
16728;DHT22;8482;54.396;18.590;2023-04-24T10:24:17;16.20;99.90
16728;DHT22;8482;54.396;18.590;2023-04-24T10:26:45;16.30;99.90
16728;DHT22;8482;54.396;18.590;2023-04-24T10:29:15;16.40;99.90
16728;DHT22;8482;54.396;18.590;2023-04-24T10:31:43;16.50;99.90
16728;DHT22;8482;54.396;18.590;2023-04-24T10:34:12;16.60;99.90
16728;DHT22;8482;54.396;18.590;2023-04-24T10:36:42;16.70;99.90
16728;DHT22;8482;54.396;18.590;2023-04-24T10:39:12;16.90;99.90
16728;DHT22;8482;54.396;18.590;2023-04-24T10:41:43;17.00;99.90
16728;DHT22;8482;54.396;18.590;2023-04-24T10:44:14;17.20;99.90
16728;DHT22;8482;54.396;18.590;2023-04-24T10:46:46;17.40;99.90
16728;DHT22;8482;54.396;18.590;2023-04-24T10:49:15;17.50;99.90
16728;DHT22;8482;54.396;18.590;2023-04-24T10:51:50;17.70;99.90
16728;DHT22;8482;54.396;18.590;2023-04-24T10:54:23;17.80;99.90
16728;DHT22;8482;54.396;18.590;2023-04-24T10:56:53;18.00;99.90
16728;DHT22;8482;54.396;18.590;2023-04-24T10:59:39;18.10;99.90
16728;DHT22;8482;54.396;18.590;2023-04-24T11:02:07;18.30;99.90
16728;DHT22;8482;54.396;18.590;2023-04-24T11:04:33;18.50;99.90
16728;DHT22;8482;54.396;18.590;2023-04-24T11:07:02;18.70;99.90
16728;DHT22;8482;54.396;18.590;2023-04-24T11:09:31;18.80;99.90
16728;DHT22;8482;54.396;18.590;2023-04-24T11:12:05;19.00;99.90
16728;DHT22;8482;54.396;18.590;2023-04-24T11:20:03;19.20;99.90
16728;DHT22;8482;54.396;18.590;2023-04-24T11:22:34;19.30;99.90
16728;DHT22;8482;54.396;18.590;2023-04-24T11:25:04;19.30;99.90
16728;DHT22;8482;54.396;18.590;2023-04-24T11:27:39;19.30;99.90
16728;DHT22;8482;54.396;18.590;2023-04-24T11:30:06;19.40;99.90
16728;DHT22;8482;54.396;18.590;2023-04-24T11:35:01;19.40;99.90
16728;DHT22;8482;54.396;18.590;2023-04-24T11:37:49;19.50;99.90
16728;DHT22;8482;54.396;18.590;2023-04-24T11:40:17;19.60;99.90
16728;DHT22;8482;54.396;18.590;2023-04-24T11:42:52;19.60;99.90
16728;DHT22;8482;54.396;18.590;2023-04-24T11:47:56;19.70;99.90
16728;DHT22;8482;54.396;18.590;2023-04-24T11:50:25;19.70;99.90
16728;DHT22;8482;54.396;18.590;2023-04-24T11:52:53;19.80;99.90
16728;DHT22;8482;54.396;18.590;2023-04-24T11:57:49;19.90;99.90
16728;DHT22;8482;54.396;18.590;2023-04-24T12:00:26;20.00;99.90
16728;DHT22;8482;54.396;18.590;2023-04-24T12:03:12;20.00;99.90
16728;DHT22;8482;54.396;18.590;2023-04-24T12:05:39;20.10;99.90
16728;DHT22;8482;54.396;18.590;2023-04-24T12:08:05;20.20;99.90
16728;DHT22;8482;54.396;18.590;2023-04-24T12:10:32;20.20;99.90
16728;DHT22;8482;54.396;18.590;2023-04-24T12:12:59;20.30;99.90
16728;DHT22;8482;54.396;18.590;2023-04-24T12:15:26;20.40;99.80
16728;DHT22;8482;54.396;18.590;2023-04-24T12:17:54;20.40;97.90
16728;DHT22;8482;54.396;18.590;2023-04-24T12:20:31;20.50;97.50
16728;DHT22;8482;54.396;18.590;2023-04-24T12:22:59;20.60;97.50
16728;DHT22;8482;54.396;18.590;2023-04-24T12:25:28;20.70;97.10
16728;DHT22;8482;54.396;18.590;2023-04-24T12:28:09;20.80;96.10
16728;DHT22;8482;54.396;18.590;2023-04-24T12:30:42;20.90;95.30
16728;DHT22;8482;54.396;18.590;2023-04-24T12:33:10;20.90;94.60
16728;DHT22;8482;54.396;18.590;2023-04-24T12:35:36;20.90;93.80
16728;DHT22;8482;54.396;18.590;2023-04-24T12:38:10;20.90;93.20
16728;DHT22;8482;54.396;18.590;2023-04-24T12:40:41;20.90;92.50
16728;DHT22;8482;54.396;18.590;2023-04-24T12:43:18;20.90;92.30
16728;DHT22;8482;54.396;18.590;2023-04-24T12:45:48;20.90;92.20
16728;DHT22;8482;54.396;18.590;2023-04-24T12:48:14;20.90;92.20
16728;DHT22;8482;54.396;18.590;2023-04-24T12:50:40;21.00;92.00
16728;DHT22;8482;54.396;18.590;2023-04-24T12:53:07;21.10;91.50
16728;DHT22;8482;54.396;18.590;2023-04-24T12:55:34;21.10;90.80
16728;DHT22;8482;54.396;18.590;2023-04-24T12:58:00;21.20;90.40
16728;DHT22;8482;54.396;18.590;2023-04-24T13:00:27;21.20;90.10
16728;DHT22;8482;54.396;18.590;2023-04-24T13:02:54;21.20;89.80
16728;DHT22;8482;54.396;18.590;2023-04-24T13:05:20;21.10;90.00
16728;DHT22;8482;54.396;18.590;2023-04-24T13:07:46;21.10;89.70
16728;DHT22;8482;54.396;18.590;2023-04-24T13:10:12;21.10;89.10
16728;DHT22;8482;54.396;18.590;2023-04-24T13:12:39;21.10;89.10
16728;DHT22;8482;54.396;18.590;2023-04-24T13:15:06;21.00;88.80
16728;DHT22;8482;54.396;18.590;2023-04-24T13:17:33;21.00;88.10
16728;DHT22;8482;54.396;18.590;2023-04-24T13:19:58;21.00;87.20
16728;DHT22;8482;54.396;18.590;2023-04-24T13:22:25;21.00;87.40
16728;DHT22;8482;54.396;18.590;2023-04-24T13:24:51;21.00;86.50
16728;DHT22;8482;54.396;18.590;2023-04-24T13:27:17;21.00;87.00
16728;DHT22;8482;54.396;18.590;2023-04-24T13:29:43;21.00;86.60
16728;DHT22;8482;54.396;18.590;2023-04-24T13:32:09;21.10;86.60
16728;DHT22;8482;54.396;18.590;2023-04-24T13:34:36;21.10;86.20
16728;DHT22;8482;54.396;18.590;2023-04-24T13:37:02;21.10;85.90
16728;DHT22;8482;54.396;18.590;2023-04-24T13:39:31;21.20;85.60
16728;DHT22;8482;54.396;18.590;2023-04-24T13:41:58;21.30;85.30
16728;DHT22;8482;54.396;18.590;2023-04-24T13:44:24;21.30;84.70
16728;DHT22;8482;54.396;18.590;2023-04-24T13:46:53;21.40;83.60
16728;DHT22;8482;54.396;18.590;2023-04-24T13:49:22;21.50;82.70
16728;DHT22;8482;54.396;18.590;2023-04-24T13:51:53;21.50;82.10
16728;DHT22;8482;54.396;18.590;2023-04-24T13:54:20;21.60;81.80
16728;DHT22;8482;54.396;18.590;2023-04-24T13:56:48;21.70;81.50
16728;DHT22;8482;54.396;18.590;2023-04-24T13:59:15;21.80;80.10
16728;DHT22;8482;54.396;18.590;2023-04-24T14:01:40;21.90;79.00
16728;DHT22;8482;54.396;18.590;2023-04-24T14:04:06;22.10;78.70
16728;DHT22;8482;54.396;18.590;2023-04-24T14:06:32;22.30;77.20
16728;DHT22;8482;54.396;18.590;2023-04-24T14:08:58;22.40;76.90
16728;DHT22;8482;54.396;18.590;2023-04-24T14:11:26;22.60;76.20
16728;DHT22;8482;54.396;18.590;2023-04-24T14:13:54;22.80;75.90
16728;DHT22;8482;54.396;18.590;2023-04-24T14:16:23;23.00;75.90
16728;DHT22;8482;54.396;18.590;2023-04-24T14:18:50;23.40;75.30
16728;DHT22;8482;54.396;18.590;2023-04-24T14:21:16;23.70;74.30
16728;DHT22;8482;54.396;18.590;2023-04-24T14:23:42;24.10;73.10
16728;DHT22;8482;54.396;18.590;2023-04-24T14:26:07;24.50;72.60
16728;DHT22;8482;54.396;18.590;2023-04-24T14:28:33;24.90;71.80
16728;DHT22;8482;54.396;18.590;2023-04-24T14:30:59;25.20;71.10
16728;DHT22;8482;54.396;18.590;2023-04-24T14:33:25;25.60;69.80
16728;DHT22;8482;54.396;18.590;2023-04-24T14:35:51;25.90;68.80
16728;DHT22;8482;54.396;18.590;2023-04-24T14:38:17;26.20;67.40
16728;DHT22;8482;54.396;18.590;2023-04-24T14:40:43;26.50;66.90
16728;DHT22;8482;54.396;18.590;2023-04-24T14:43:09;26.70;65.90
16728;DHT22;8482;54.396;18.590;2023-04-24T14:45:35;26.90;64.70
16728;DHT22;8482;54.396;18.590;2023-04-24T14:48:02;27.00;63.70
16728;DHT22;8482;54.396;18.590;2023-04-24T14:50:28;27.20;63.00
16728;DHT22;8482;54.396;18.590;2023-04-24T14:52:55;27.20;62.20
16728;DHT22;8482;54.396;18.590;2023-04-24T14:55:23;27.10;61.90
16728;DHT22;8482;54.396;18.590;2023-04-24T14:57:50;27.00;62.50
16728;DHT22;8482;54.396;18.590;2023-04-24T15:00:16;26.90;62.90
16728;DHT22;8482;54.396;18.590;2023-04-24T15:02:43;26.70;62.90
16728;DHT22;8482;54.396;18.590;2023-04-24T15:05:10;26.50;62.80
16728;DHT22;8482;54.396;18.590;2023-04-24T15:07:36;26.20;63.30
16728;DHT22;8482;54.396;18.590;2023-04-24T15:10:03;26.00;64.20
16728;DHT22;8482;54.396;18.590;2023-04-24T15:12:30;25.70;64.80
16728;DHT22;8482;54.396;18.590;2023-04-24T15:14:57;25.50;65.60
16728;DHT22;8482;54.396;18.590;2023-04-24T15:17:25;25.30;65.80
16728;DHT22;8482;54.396;18.590;2023-04-24T15:19:52;24.90;66.40
16728;DHT22;8482;54.396;18.590;2023-04-24T15:22:18;24.60;67.60
16728;DHT22;8482;54.396;18.590;2023-04-24T15:24:44;24.30;68.30
16728;DHT22;8482;54.396;18.590;2023-04-24T15:27:10;24.00;68.60
16728;DHT22;8482;54.396;18.590;2023-04-24T15:29:36;23.70;68.80
16728;DHT22;8482;54.396;18.590;2023-04-24T15:32:02;23.40;69.60
16728;DHT22;8482;54.396;18.590;2023-04-24T15:34:28;23.20;70.60
16728;DHT22;8482;54.396;18.590;2023-04-24T15:36:54;22.90;71.50
16728;DHT22;8482;54.396;18.590;2023-04-24T15:39:23;22.70;72.50
16728;DHT22;8482;54.396;18.590;2023-04-24T15:41:50;22.50;73.50